sensor_id;sensor_type;location;lat;lon;timestamp;P1;durP1;ratioP1;P2;durP2;ratioP2
938;SDS011;456;53.584;9.968;2023-09-19T00:00:00;2.30;;;2.10;;
938;SDS011;456;53.584;9.968;2023-09-19T00:02:26;2.43;;;1.97;;
938;SDS011;456;53.584;9.968;2023-09-19T00:04:52;2.53;;;2.00;;
938;SDS011;456;53.584;9.968;2023-09-19T00:07:18;3.00;;;2.13;;
938;SDS011;456;53.584;9.968;2023-09-19T00:09:44;3.60;;;2.33;;
938;SDS011;456;53.584;9.968;2023-09-19T00:12:09;2.40;;;2.20;;
938;SDS011;456;53.584;9.968;2023-09-19T00:14:35;2.70;;;2.20;;
938;SDS011;456;53.584;9.968;2023-09-19T00:17:02;2.47;;;2.10;;
938;SDS011;456;53.584;9.968;2023-09-19T00:19:36;3.70;;;2.10;;
938;SDS011;456;53.584;9.968;2023-09-19T00:22:02;2.30;;;2.10;;
938;SDS011;456;53.584;9.968;2023-09-19T00:24:29;2.23;;;2.03;;
938;SDS011;456;53.584;9.968;2023-09-19T00:26:55;2.40;;;2.30;;
938;SDS011;456;53.584;9.968;2023-09-19T00:29:25;2.10;;;1.80;;
938;SDS011;456;53.584;9.968;2023-09-19T00:31:55;2.47;;;1.83;;
938;SDS011;456;53.584;9.968;2023-09-19T00:34:22;3.40;;;2.20;;
938;SDS011;456;53.584;9.968;2023-09-19T00:36:47;2.33;;;2.13;;
938;SDS011;456;53.584;9.968;2023-09-19T00:39:13;2.30;;;2.10;;
938;SDS011;456;53.584;9.968;2023-09-19T00:41:39;2.30;;;2.10;;
938;SDS011;456;53.584;9.968;2023-09-19T00:44:05;2.50;;;2.30;;
938;SDS011;456;53.584;9.968;2023-09-19T00:46:31;3.33;;;2.17;;
938;SDS011;456;53.584;9.968;2023-09-19T00:49:00;3.10;;;2.20;;
938;SDS011;456;53.584;9.968;2023-09-19T00:51:26;2.07;;;1.97;;
938;SDS011;456;53.584;9.968;2023-09-19T00:53:52;2.60;;;2.40;;
938;SDS011;456;53.584;9.968;2023-09-19T00:56:18;1.90;;;1.80;;
938;SDS011;456;53.584;9.968;2023-09-19T00:58:45;2.60;;;2.40;;
938;SDS011;456;53.584;9.968;2023-09-19T01:01:13;4.80;;;2.53;;
938;SDS011;456;53.584;9.968;2023-09-19T01:03:39;2.13;;;1.93;;
938;SDS011;456;53.584;9.968;2023-09-19T01:06:06;4.33;;;2.77;;
938;SDS011;456;53.584;9.968;2023-09-19T01:08:33;2.07;;;1.87;;
938;SDS011;456;53.584;9.968;2023-09-19T01:11:01;2.37;;;2.17;;
938;SDS011;456;53.584;9.968;2023-09-19T01:13:47;2.60;;;2.13;;
938;SDS011;456;53.584;9.968;2023-09-19T01:29:37;2.60;;;2.37;;
938;SDS011;456;53.584;9.968;2023-09-19T01:32:08;2.90;;;2.70;;
938;SDS011;456;53.584;9.968;2023-09-19T01:34:44;2.80;;;2.13;;
938;SDS011;456;53.584;9.968;2023-09-19T01:37:12;3.20;;;2.63;;
938;SDS011;456;53.584;9.968;2023-09-19T01:39:38;3.50;;;3.00;;
938;SDS011;456;53.584;9.968;2023-09-19T01:42:11;2.83;;;2.23;;
938;SDS011;456;53.584;9.968;2023-09-19T01:44:59;3.00;;;2.77;;
938;SDS011;456;53.584;9.968;2023-09-19T01:47:34;2.43;;;2.23;;
938;SDS011;456;53.584;9.968;2023-09-19T01:52:36;3.30;;;2.83;;
938;SDS011;456;53.584;9.968;2023-09-19T01:55:19;3.43;;;2.80;;
938;SDS011;456;53.584;9.968;2023-09-19T01:57:51;2.87;;;2.60;;
938;SDS011;456;53.584;9.968;2023-09-19T02:00:25;2.77;;;2.57;;
938;SDS011;456;53.584;9.968;2023-09-19T02:02:54;3.40;;;2.80;;
938;SDS011;456;53.584;9.968;2023-09-19T02:05:23;3.10;;;2.50;;
938;SDS011;456;53.584;9.968;2023-09-19T02:07:50;4.90;;;2.83;;
938;SDS011;456;53.584;9.968;2023-09-19T02:10:16;3.80;;;2.50;;
938;SDS011;456;53.584;9.968;2023-09-19T02:12:42;4.90;;;2.57;;
938;SDS011;456;53.584;9.968;2023-09-19T02:15:08;4.60;;;2.60;;
938;SDS011;456;53.584;9.968;2023-09-19T02:17:34;3.63;;;2.47;;
938;SDS011;456;53.584;9.968;2023-09-19T02:20:00;3.23;;;2.93;;
938;SDS011;456;53.584;9.968;2023-09-19T02:22:26;2.57;;;2.23;;
938;SDS011;456;53.584;9.968;2023-09-19T02:24:52;4.43;;;2.57;;
938;SDS011;456;53.584;9.968;2023-09-19T02:27:19;3.67;;;2.50;;
938;SDS011;456;53.584;9.968;2023-09-19T02:29:44;3.03;;;2.70;;
938;SDS011;456;53.584;9.968;2023-09-19T02:32:10;4.10;;;2.90;;
938;SDS011;456;53.584;9.968;2023-09-19T02:34:36;2.80;;;2.60;;
938;SDS011;456;53.584;9.968;2023-09-19T02:37:05;5.40;;;3.53;;
938;SDS011;456;53.584;9.968;2023-09-19T02:39:31;3.97;;;2.77;;
938;SDS011;456;53.584;9.968;2023-09-19T02:41:57;3.33;;;2.90;;
938;SDS011;456;53.584;9.968;2023-09-19T02:44:23;7.30;;;2.90;;
938;SDS011;456;53.584;9.968;2023-09-19T02:46:49;3.80;;;2.90;;
938;SDS011;456;53.584;9.968;2023-09-19T02:49:15;4.27;;;2.90;;
938;SDS011;456;53.584;9.968;2023-09-19T02:51:42;4.20;;;3.27;;
938;SDS011;456;53.584;9.968;2023-09-19T02:54:08;2.80;;;2.60;;
938;SDS011;456;53.584;9.968;2023-09-19T02:56:35;3.97;;;2.83;;
938;SDS011;456;53.584;9.968;2023-09-19T02:59:01;2.70;;;2.50;;
938;SDS011;456;53.584;9.968;2023-09-19T03:01:26;4.20;;;2.67;;
938;SDS011;456;53.584;9.968;2023-09-19T03:03:53;3.10;;;2.30;;
938;SDS011;456;53.584;9.968;2023-09-19T03:06:20;4.10;;;2.77;;
938;SDS011;456;53.584;9.968;2023-09-19T03:08:46;2.70;;;2.30;;
938;SDS011;456;53.584;9.968;2023-09-19T03:11:14;3.60;;;2.60;;
938;SDS011;456;53.584;9.968;2023-09-19T03:13:41;6.03;;;2.63;;
938;SDS011;456;53.584;9.968;2023-09-19T03:16:07;4.37;;;2.93;;
938;SDS011;456;53.584;9.968;2023-09-19T03:18:34;3.93;;;2.83;;
938;SDS011;456;53.584;9.968;2023-09-19T03:20:59;3.10;;;2.80;;
938;SDS011;456;53.584;9.968;2023-09-19T03:23:25;2.47;;;2.20;;
938;SDS011;456;53.584;9.968;2023-09-19T03:25:51;5.17;;;2.83;;
938;SDS011;456;53.584;9.968;2023-09-19T03:28:21;3.17;;;2.40;;
938;SDS011;456;53.584;9.968;2023-09-19T03:31:08;2.73;;;2.23;;
938;SDS011;456;53.584;9.968;2023-09-19T03:33:33;2.77;;;2.57;;
938;SDS011;456;53.584;9.968;2023-09-19T03:35:59;3.90;;;2.30;;
938;SDS011;456;53.584;9.968;2023-09-19T03:38:26;3.83;;;2.40;;
938;SDS011;456;53.584;9.968;2023-09-19T03:40:53;3.37;;;2.60;;
938;SDS011;456;53.584;9.968;2023-09-19T03:43:19;2.27;;;1.93;;
938;SDS011;456;53.584;9.968;2023-09-19T03:45:45;2.27;;;2.07;;
938;SDS011;456;53.584;9.968;2023-09-19T03:48:11;2.53;;;2.30;;
938;SDS011;456;53.584;9.968;2023-09-19T03:50:38;2.70;;;2.20;;
938;SDS011;456;53.584;9.968;2023-09-19T03:53:03;3.20;;;1.80;;
938;SDS011;456;53.584;9.968;2023-09-19T03:55:29;3.70;;;2.30;;
938;SDS011;456;53.584;9.968;2023-09-19T03:58:00;2.97;;;1.83;;
938;SDS011;456;53.584;9.968;2023-09-19T04:00:26;1.60;;;1.50;;
938;SDS011;456;53.584;9.968;2023-09-19T04:02:52;3.73;;;1.87;;
938;SDS011;456;53.584;9.968;2023-09-19T04:05:18;2.30;;;1.97;;
938;SDS011;456;53.584;9.968;2023-09-19T04:07:44;3.20;;;2.07;;
938;SDS011;456;53.584;9.968;2023-09-19T04:10:09;3.07;;;2.00;;
938;SDS011;456;53.584;9.968;2023-09-19T04:12:36;4.10;;;2.17;;
938;SDS011;456;53.584;9.968;2023-09-19T04:15:03;3.40;;;1.60;;
938;SDS011;456;53.584;9.968;2023-09-19T04:17:32;2.20;;;1.70;;
938;SDS011;456;53.584;9.968;2023-09-19T04:20:01;1.63;;;1.37;;
938;SDS011;456;53.584;9.968;2023-09-19T04:22:26;5.60;;;2.17;;
938;SDS011;456;53.584;9.968;2023-09-19T04:24:52;2.50;;;1.83;;
938;SDS011;456;53.584;9.968;2023-09-19T04:27:17;1.70;;;1.50;;
938;SDS011;456;53.584;9.968;2023-09-19T04:29:44;1.93;;;1.50;;
938;SDS011;456;53.584;9.968;2023-09-19T04:32:09;2.23;;;1.73;;
938;SDS011;456;53.584;9.968;2023-09-19T04:34:35;1.70;;;1.60;;
938;SDS011;456;53.584;9.968;2023-09-19T04:37:01;1.63;;;1.53;;
938;SDS011;456;53.584;9.968;2023-09-19T04:39:27;4.10;;;1.73;;
938;SDS011;456;53.584;9.968;2023-09-19T04:41:53;3.03;;;2.30;;
938;SDS011;456;53.584;9.968;2023-09-19T04:44:19;2.03;;;1.77;;
938;SDS011;456;53.584;9.968;2023-09-19T04:46:45;3.90;;;2.20;;
938;SDS011;456;53.584;9.968;2023-09-19T04:49:11;3.27;;;1.70;;
938;SDS011;456;53.584;9.968;2023-09-19T04:51:37;2.53;;;1.47;;
938;SDS011;456;53.584;9.968;2023-09-19T04:54:04;2.93;;;1.70;;
938;SDS011;456;53.584;9.968;2023-09-19T04:56:30;3.27;;;1.70;;
938;SDS011;456;53.584;9.968;2023-09-19T04:58:57;3.93;;;1.60;;
938;SDS011;456;53.584;9.968;2023-09-19T05:01:23;4.60;;;1.87;;
938;SDS011;456;53.584;9.968;2023-09-19T05:03:50;7.20;;;2.10;;
938;SDS011;456;53.584;9.968;2023-09-19T05:06:21;7.00;;;2.27;;
938;SDS011;456;53.584;9.968;2023-09-19T05:08:47;5.80;;;2.07;;
938;SDS011;456;53.584;9.968;2023-09-19T05:11:16;4.70;;;2.10;;
938;SDS011;456;53.584;9.968;2023-09-19T05:13:46;4.37;;;1.87;;
938;SDS011;456;53.584;9.968;2023-09-19T05:16:12;3.13;;;2.17;;
938;SDS011;456;53.584;9.968;2023-09-19T05:18:37;7.40;;;2.37;;
938;SDS011;456;53.584;9.968;2023-09-19T05:21:03;2.40;;;1.77;;
938;SDS011;456;53.584;9.968;2023-09-19T05:23:29;3.57;;;1.70;;
938;SDS011;456;53.584;9.968;2023-09-19T05:25:56;2.50;;;1.80;;
938;SDS011;456;53.584;9.968;2023-09-19T05:28:23;5.90;;;2.30;;
938;SDS011;456;53.584;9.968;2023-09-19T05:30:49;3.20;;;1.60;;
938;SDS011;456;53.584;9.968;2023-09-19T05:33:14;3.07;;;1.83;;
938;SDS011;456;53.584;9.968;2023-09-19T05:35:40;4.00;;;1.97;;
938;SDS011;456;53.584;9.968;2023-09-19T05:38:07;4.57;;;2.20;;
938;SDS011;456;53.584;9.968;2023-09-19T05:40:34;3.43;;;2.03;;
938;SDS011;456;53.584;9.968;2023-09-19T05:43:00;4.30;;;2.17;;
938;SDS011;456;53.584;9.968;2023-09-19T05:45:28;5.40;;;2.07;;
938;SDS011;456;53.584;9.968;2023-09-19T05:47:54;3.00;;;1.90;;
938;SDS011;456;53.584;9.968;2023-09-19T05:50:29;2.70;;;2.07;;
938;SDS011;456;53.584;9.968;2023-09-19T05:52:55;3.90;;;1.90;;
938;SDS011;456;53.584;9.968;2023-09-19T05:55:23;4.50;;;1.90;;
938;SDS011;456;53.584;9.968;2023-09-19T05:57:53;4.20;;;2.00;;
938;SDS011;456;53.584;9.968;2023-09-19T06:00:19;2.97;;;2.00;;
938;SDS011;456;53.584;9.968;2023-09-19T06:02:54;3.17;;;1.90;;
938;SDS011;456;53.584;9.968;2023-09-19T06:05:20;3.40;;;2.10;;
938;SDS011;456;53.584;9.968;2023-09-19T06:07:46;3.43;;;1.93;;
938;SDS011;456;53.584;9.968;2023-09-19T06:10:13;3.27;;;2.00;;
938;SDS011;456;53.584;9.968;2023-09-19T06:12:39;4.50;;;2.67;;
938;SDS011;456;53.584;9.968;2023-09-19T06:15:08;3.50;;;2.03;;
938;SDS011;456;53.584;9.968;2023-09-19T06:17:37;9.23;;;2.50;;
938;SDS011;456;53.584;9.968;2023-09-19T06:20:04;4.70;;;2.50;;
938;SDS011;456;53.584;9.968;2023-09-19T06:22:37;4.93;;;2.90;;
938;SDS011;456;53.584;9.968;2023-09-19T06:25:03;4.00;;;2.17;;
938;SDS011;456;53.584;9.968;2023-09-19T06:27:29;4.27;;;2.67;;
938;SDS011;456;53.584;9.968;2023-09-19T06:29:55;5.73;;;2.50;;
938;SDS011;456;53.584;9.968;2023-09-19T06:32:26;2.87;;;2.23;;
938;SDS011;456;53.584;9.968;2023-09-19T06:34:52;6.30;;;2.70;;
938;SDS011;456;53.584;9.968;2023-09-19T06:37:19;3.20;;;2.37;;
938;SDS011;456;53.584;9.968;2023-09-19T06:39:46;2.90;;;2.10;;
938;SDS011;456;53.584;9.968;2023-09-19T06:42:14;4.03;;;3.00;;
938;SDS011;456;53.584;9.968;2023-09-19T06:44:42;5.70;;;3.00;;
938;SDS011;456;53.584;9.968;2023-09-19T06:47:08;4.63;;;3.17;;
938;SDS011;456;53.584;9.968;2023-09-19T06:49:35;4.27;;;3.50;;
938;SDS011;456;53.584;9.968;2023-09-19T06:52:00;8.00;;;3.43;;
938;SDS011;456;53.584;9.968;2023-09-19T06:54:27;4.83;;;3.53;;
938;SDS011;456;53.584;9.968;2023-09-19T06:56:56;6.17;;;3.57;;
938;SDS011;456;53.584;9.968;2023-09-19T06:59:23;4.83;;;3.93;;
938;SDS011;456;53.584;9.968;2023-09-19T07:01:49;4.30;;;3.30;;
938;SDS011;456;53.584;9.968;2023-09-19T07:04:16;4.00;;;3.23;;
938;SDS011;456;53.584;9.968;2023-09-19T07:06:42;3.40;;;3.10;;
938;SDS011;456;53.584;9.968;2023-09-19T07:09:07;7.13;;;3.17;;
938;SDS011;456;53.584;9.968;2023-09-19T07:11:33;3.30;;;3.00;;
938;SDS011;456;53.584;9.968;2023-09-19T07:13:59;5.87;;;3.97;;
938;SDS011;456;53.584;9.968;2023-09-19T07:16:28;3.77;;;3.37;;
938;SDS011;456;53.584;9.968;2023-09-19T07:18:55;5.30;;;3.10;;
938;SDS011;456;53.584;9.968;2023-09-19T07:21:21;4.50;;;3.40;;
938;SDS011;456;53.584;9.968;2023-09-19T07:23:47;4.60;;;2.80;;
938;SDS011;456;53.584;9.968;2023-09-19T07:26:14;4.10;;;3.00;;
938;SDS011;456;53.584;9.968;2023-09-19T07:28:40;5.43;;;3.37;;
938;SDS011;456;53.584;9.968;2023-09-19T07:31:06;8.90;;;3.00;;
938;SDS011;456;53.584;9.968;2023-09-19T07:33:35;6.30;;;3.20;;
938;SDS011;456;53.584;9.968;2023-09-19T07:36:01;5.73;;;3.10;;
938;SDS011;456;53.584;9.968;2023-09-19T07:38:27;4.40;;;2.83;;
938;SDS011;456;53.584;9.968;2023-09-19T07:40:53;4.83;;;2.83;;
938;SDS011;456;53.584;9.968;2023-09-19T07:43:24;4.20;;;2.83;;
938;SDS011;456;53.584;9.968;2023-09-19T07:45:50;4.53;;;3.27;;
938;SDS011;456;53.584;9.968;2023-09-19T07:48:15;5.40;;;3.10;;
938;SDS011;456;53.584;9.968;2023-09-19T07:50:41;5.30;;;3.20;;
938;SDS011;456;53.584;9.968;2023-09-19T07:53:08;4.73;;;3.03;;
938;SDS011;456;53.584;9.968;2023-09-19T07:55:34;9.53;;;3.20;;
938;SDS011;456;53.584;9.968;2023-09-19T07:57:59;4.40;;;3.10;;
938;SDS011;456;53.584;9.968;2023-09-19T08:00:25;5.03;;;2.90;;
938;SDS011;456;53.584;9.968;2023-09-19T08:02:51;4.50;;;2.80;;
938;SDS011;456;53.584;9.968;2023-09-19T08:05:17;3.50;;;2.63;;
938;SDS011;456;53.584;9.968;2023-09-19T08:07:46;3.60;;;2.23;;
938;SDS011;456;53.584;9.968;2023-09-19T08:10:15;3.37;;;2.70;;
938;SDS011;456;53.584;9.968;2023-09-19T08:12:44;7.33;;;3.43;;
938;SDS011;456;53.584;9.968;2023-09-19T08:15:15;4.27;;;2.73;;
938;SDS011;456;53.584;9.968;2023-09-19T08:17:46;4.50;;;2.70;;
938;SDS011;456;53.584;9.968;2023-09-19T08:20:12;6.77;;;2.50;;
938;SDS011;456;53.584;9.968;2023-09-19T08:22:43;3.50;;;2.40;;
938;SDS011;456;53.584;9.968;2023-09-19T08:25:12;3.43;;;2.17;;
938;SDS011;456;53.584;9.968;2023-09-19T08:27:38;4.90;;;2.67;;
938;SDS011;456;53.584;9.968;2023-09-19T08:30:04;6.17;;;2.57;;
938;SDS011;456;53.584;9.968;2023-09-19T08:32:31;2.80;;;2.10;;
938;SDS011;456;53.584;9.968;2023-09-19T08:34:57;3.37;;;2.77;;
938;SDS011;456;53.584;9.968;2023-09-19T08:37:22;5.10;;;2.77;;
938;SDS011;456;53.584;9.968;2023-09-19T08:39:48;3.00;;;2.03;;
938;SDS011;456;53.584;9.968;2023-09-19T08:42:14;2.40;;;1.80;;
938;SDS011;456;53.584;9.968;2023-09-19T08:44:41;4.53;;;2.37;;
938;SDS011;456;53.584;9.968;2023-09-19T08:47:09;2.80;;;2.30;;
938;SDS011;456;53.584;9.968;2023-09-19T08:52:20;3.13;;;2.20;;
938;SDS011;456;53.584;9.968;2023-09-19T08:54:48;5.80;;;2.37;;
938;SDS011;456;53.584;9.968;2023-09-19T08:57:18;4.67;;;2.53;;
938;SDS011;456;53.584;9.968;2023-09-19T08:59:47;4.70;;;2.50;;
938;SDS011;456;53.584;9.968;2023-09-19T09:02:14;6.57;;;2.37;;
938;SDS011;456;53.584;9.968;2023-09-19T09:04:41;4.80;;;2.13;;
938;SDS011;456;53.584;9.968;2023-09-19T09:07:12;4.40;;;2.10;;
938;SDS011;456;53.584;9.968;2023-09-19T09:09:38;3.00;;;2.47;;
938;SDS011;456;53.584;9.968;2023-09-19T09:12:08;5.30;;;2.33;;
938;SDS011;456;53.584;9.968;2023-09-19T09:14:38;2.93;;;2.07;;
938;SDS011;456;53.584;9.968;2023-09-19T09:17:15;4.43;;;1.90;;
938;SDS011;456;53.584;9.968;2023-09-19T09:19:42;2.80;;;1.53;;
938;SDS011;456;53.584;9.968;2023-09-19T09:22:08;3.60;;;2.03;;
938;SDS011;456;53.584;9.968;2023-09-19T09:24:35;3.13;;;1.60;;
938;SDS011;456;53.584;9.968;2023-09-19T09:27:04;3.50;;;2.37;;
938;SDS011;456;53.584;9.968;2023-09-19T09:29:40;4.53;;;2.20;;
938;SDS011;456;53.584;9.968;2023-09-19T09:34:55;4.33;;;1.93;;
938;SDS011;456;53.584;9.968;2023-09-19T09:37:22;3.83;;;2.07;;
938;SDS011;456;53.584;9.968;2023-09-19T09:39:59;3.70;;;2.10;;
938;SDS011;456;53.584;9.968;2023-09-19T09:42:41;2.37;;;1.97;;
938;SDS011;456;53.584;9.968;2023-09-19T09:45:15;4.03;;;1.90;;
938;SDS011;456;53.584;9.968;2023-09-19T09:47:53;3.80;;;2.03;;
938;SDS011;456;53.584;9.968;2023-09-19T09:50:29;5.50;;;1.97;;
938;SDS011;456;53.584;9.968;2023-09-19T09:53:28;2.53;;;1.97;;
938;SDS011;456;53.584;9.968;2023-09-19T09:58:35;5.10;;;2.10;;
938;SDS011;456;53.584;9.968;2023-09-19T10:01:03;2.90;;;1.87;;
938;SDS011;456;53.584;9.968;2023-09-19T10:03:40;3.90;;;1.80;;
938;SDS011;456;53.584;9.968;2023-09-19T10:06:09;4.97;;;2.10;;
938;SDS011;456;53.584;9.968;2023-09-19T10:09:02;3.03;;;2.03;;
938;SDS011;456;53.584;9.968;2023-09-19T10:11:35;4.40;;;2.57;;
938;SDS011;456;53.584;9.968;2023-09-19T10:14:11;2.97;;;2.20;;
938;SDS011;456;53.584;9.968;2023-09-19T10:16:40;3.07;;;2.27;;
938;SDS011;456;53.584;9.968;2023-09-19T10:19:20;4.87;;;2.87;;
938;SDS011;456;53.584;9.968;2023-09-19T10:21:55;6.63;;;3.23;;
938;SDS011;456;53.584;9.968;2023-09-19T10:24:22;7.40;;;3.23;;
938;SDS011;456;53.584;9.968;2023-09-19T10:26:50;3.67;;;2.60;;
938;SDS011;456;53.584;9.968;2023-09-19T10:29:16;4.70;;;2.80;;
938;SDS011;456;53.584;9.968;2023-09-19T10:31:44;3.13;;;2.10;;
938;SDS011;456;53.584;9.968;2023-09-19T10:34:12;4.90;;;2.33;;
938;SDS011;456;53.584;9.968;2023-09-19T10:36:40;6.13;;;2.60;;
938;SDS011;456;53.584;9.968;2023-09-19T10:39:10;6.37;;;2.80;;
938;SDS011;456;53.584;9.968;2023-09-19T10:41:39;4.40;;;2.63;;
938;SDS011;456;53.584;9.968;2023-09-19T10:44:05;3.50;;;2.70;;
938;SDS011;456;53.584;9.968;2023-09-19T10:46:31;3.13;;;2.10;;
938;SDS011;456;53.584;9.968;2023-09-19T10:49:01;4.10;;;2.63;;
938;SDS011;456;53.584;9.968;2023-09-19T10:51:31;4.20;;;2.50;;
938;SDS011;456;53.584;9.968;2023-09-19T10:54:06;4.10;;;2.63;;
938;SDS011;456;53.584;9.968;2023-09-19T10:56:33;2.87;;;2.20;;
938;SDS011;456;53.584;9.968;2023-09-19T11:01:44;4.27;;;2.30;;
938;SDS011;456;53.584;9.968;2023-09-19T11:07:10;3.80;;;1.90;;
938;SDS011;456;53.584;9.968;2023-09-19T11:09:58;4.10;;;2.03;;
938;SDS011;456;53.584;9.968;2023-09-19T11:15:10;3.97;;;2.10;;
938;SDS011;456;53.584;9.968;2023-09-19T11:26:49;5.60;;;1.83;;
938;SDS011;456;53.584;9.968;2023-09-19T11:31:58;2.80;;;1.80;;
938;SDS011;456;53.584;9.968;2023-09-19T11:37:02;2.27;;;1.87;;
938;SDS011;456;53.584;9.968;2023-09-19T11:39:29;2.33;;;1.93;;
938;SDS011;456;53.584;9.968;2023-09-19T11:41:55;4.97;;;1.60;;
938;SDS011;456;53.584;9.968;2023-09-19T11:44:31;2.40;;;1.50;;
938;SDS011;456;53.584;9.968;2023-09-19T11:47:03;4.37;;;1.80;;
938;SDS011;456;53.584;9.968;2023-09-19T11:49:31;3.30;;;2.20;;
938;SDS011;456;53.584;9.968;2023-09-19T11:52:01;2.47;;;1.77;;
938;SDS011;456;53.584;9.968;2023-09-19T11:54:30;4.00;;;1.97;;
938;SDS011;456;53.584;9.968;2023-09-19T11:56:57;2.10;;;1.90;;
938;SDS011;456;53.584;9.968;2023-09-19T11:59:25;2.67;;;1.87;;
938;SDS011;456;53.584;9.968;2023-09-19T12:01:59;3.83;;;2.20;;
938;SDS011;456;53.584;9.968;2023-09-19T12:04:35;2.10;;;1.60;;
938;SDS011;456;53.584;9.968;2023-09-19T12:07:11;2.33;;;1.33;;
938;SDS011;456;53.584;9.968;2023-09-19T12:09:41;3.60;;;2.10;;
938;SDS011;456;53.584;9.968;2023-09-19T12:12:09;2.57;;;1.80;;
938;SDS011;456;53.584;9.968;2023-09-19T12:14:37;3.10;;;1.50;;
938;SDS011;456;53.584;9.968;2023-09-19T12:17:06;2.17;;;1.40;;
938;SDS011;456;53.584;9.968;2023-09-19T12:19:32;2.60;;;1.63;;
938;SDS011;456;53.584;9.968;2023-09-19T12:22:01;3.23;;;2.00;;
938;SDS011;456;53.584;9.968;2023-09-19T12:24:30;2.47;;;1.83;;
938;SDS011;456;53.584;9.968;2023-09-19T12:27:01;3.80;;;2.10;;
938;SDS011;456;53.584;9.968;2023-09-19T12:29:30;2.57;;;1.80;;
938;SDS011;456;53.584;9.968;2023-09-19T12:31:59;2.73;;;1.50;;
938;SDS011;456;53.584;9.968;2023-09-19T12:34:31;3.50;;;1.97;;
938;SDS011;456;53.584;9.968;2023-09-19T12:39:48;4.50;;;2.00;;
938;SDS011;456;53.584;9.968;2023-09-19T12:42:17;3.43;;;1.97;;
938;SDS011;456;53.584;9.968;2023-09-19T12:44:45;2.17;;;1.97;;
938;SDS011;456;53.584;9.968;2023-09-19T12:47:13;3.97;;;2.20;;
938;SDS011;456;53.584;9.968;2023-09-19T12:52:35;2.20;;;1.77;;
938;SDS011;456;53.584;9.968;2023-09-19T12:55:19;4.50;;;1.93;;
938;SDS011;456;53.584;9.968;2023-09-19T13:05:59;1.67;;;1.40;;
938;SDS011;456;53.584;9.968;2023-09-19T13:08:26;2.73;;;1.93;;
938;SDS011;456;53.584;9.968;2023-09-19T13:16:33;3.10;;;2.47;;
938;SDS011;456;53.584;9.968;2023-09-19T13:18:59;3.63;;;2.00;;
938;SDS011;456;53.584;9.968;2023-09-19T13:21:29;3.40;;;2.00;;
938;SDS011;456;53.584;9.968;2023-09-19T13:24:20;2.07;;;1.70;;
938;SDS011;456;53.584;9.968;2023-09-19T13:26:52;3.27;;;1.67;;
938;SDS011;456;53.584;9.968;2023-09-19T13:29:18;4.50;;;2.13;;
938;SDS011;456;53.584;9.968;2023-09-19T13:31:50;4.30;;;2.10;;
938;SDS011;456;53.584;9.968;2023-09-19T13:34:18;3.13;;;2.23;;
938;SDS011;456;53.584;9.968;2023-09-19T13:36:44;3.70;;;2.30;;
938;SDS011;456;53.584;9.968;2023-09-19T13:39:13;2.20;;;1.80;;
938;SDS011;456;53.584;9.968;2023-09-19T13:41:40;3.80;;;2.27;;
938;SDS011;456;53.584;9.968;2023-09-19T13:44:07;4.40;;;1.53;;
938;SDS011;456;53.584;9.968;2023-09-19T13:46:35;2.27;;;1.60;;
938;SDS011;456;53.584;9.968;2023-09-19T13:49:01;5.10;;;2.50;;
938;SDS011;456;53.584;9.968;2023-09-19T13:51:28;3.20;;;1.90;;
938;SDS011;456;53.584;9.968;2023-09-19T13:53:55;3.80;;;1.80;;
938;SDS011;456;53.584;9.968;2023-09-19T13:56:21;4.40;;;2.40;;
938;SDS011;456;53.584;9.968;2023-09-19T13:58:47;5.67;;;2.60;;
938;SDS011;456;53.584;9.968;2023-09-19T14:01:13;3.80;;;2.10;;
938;SDS011;456;53.584;9.968;2023-09-19T14:03:39;2.60;;;2.13;;
938;SDS011;456;53.584;9.968;2023-09-19T14:06:05;2.83;;;1.67;;
938;SDS011;456;53.584;9.968;2023-09-19T14:08:31;3.30;;;2.00;;
938;SDS011;456;53.584;9.968;2023-09-19T14:10:58;4.37;;;2.30;;
938;SDS011;456;53.584;9.968;2023-09-19T14:13:24;2.57;;;2.13;;
938;SDS011;456;53.584;9.968;2023-09-19T14:15:50;2.90;;;1.97;;
938;SDS011;456;53.584;9.968;2023-09-19T14:18:16;3.80;;;1.80;;
938;SDS011;456;53.584;9.968;2023-09-19T14:20:43;2.60;;;1.80;;
938;SDS011;456;53.584;9.968;2023-09-19T14:23:09;3.03;;;2.10;;
938;SDS011;456;53.584;9.968;2023-09-19T14:25:35;4.27;;;2.00;;
938;SDS011;456;53.584;9.968;2023-09-19T14:28:01;3.33;;;2.20;;
938;SDS011;456;53.584;9.968;2023-09-19T14:30:27;4.93;;;2.57;;
938;SDS011;456;53.584;9.968;2023-09-19T14:32:53;2.13;;;1.83;;
938;SDS011;456;53.584;9.968;2023-09-19T14:35:18;2.33;;;2.03;;
938;SDS011;456;53.584;9.968;2023-09-19T14:37:44;2.40;;;1.70;;
938;SDS011;456;53.584;9.968;2023-09-19T14:40:10;5.40;;;2.50;;
938;SDS011;456;53.584;9.968;2023-09-19T14:42:38;4.13;;;2.50;;
938;SDS011;456;53.584;9.968;2023-09-19T14:45:04;4.33;;;2.37;;
938;SDS011;456;53.584;9.968;2023-09-19T14:47:31;2.83;;;1.90;;
938;SDS011;456;53.584;9.968;2023-09-19T14:49:59;3.40;;;1.70;;
938;SDS011;456;53.584;9.968;2023-09-19T14:52:31;3.10;;;1.77;;
938;SDS011;456;53.584;9.968;2023-09-19T14:54:57;4.97;;;2.07;;
938;SDS011;456;53.584;9.968;2023-09-19T14:57:23;4.50;;;2.20;;
938;SDS011;456;53.584;9.968;2023-09-19T14:59:49;2.30;;;2.10;;
938;SDS011;456;53.584;9.968;2023-09-19T15:02:15;3.50;;;2.27;;
938;SDS011;456;53.584;9.968;2023-09-19T15:04:42;4.80;;;2.23;;
938;SDS011;456;53.584;9.968;2023-09-19T15:07:11;4.97;;;2.30;;
938;SDS011;456;53.584;9.968;2023-09-19T15:09:37;2.30;;;1.97;;
938;SDS011;456;53.584;9.968;2023-09-19T15:12:03;3.80;;;2.37;;
938;SDS011;456;53.584;9.968;2023-09-19T15:14:29;3.93;;;2.17;;
938;SDS011;456;53.584;9.968;2023-09-19T15:16:54;2.90;;;2.30;;
938;SDS011;456;53.584;9.968;2023-09-19T15:19:20;2.67;;;2.00;;
938;SDS011;456;53.584;9.968;2023-09-19T15:21:47;4.43;;;2.30;;
938;SDS011;456;53.584;9.968;2023-09-19T15:24:13;4.80;;;2.47;;
938;SDS011;456;53.584;9.968;2023-09-19T15:26:39;2.20;;;2.00;;
938;SDS011;456;53.584;9.968;2023-09-19T15:29:05;5.40;;;2.57;;
938;SDS011;456;53.584;9.968;2023-09-19T15:31:37;4.93;;;3.10;;
938;SDS011;456;53.584;9.968;2023-09-19T15:34:03;2.27;;;2.07;;
938;SDS011;456;53.584;9.968;2023-09-19T15:36:30;3.97;;;2.67;;
938;SDS011;456;53.584;9.968;2023-09-19T15:39:03;3.50;;;2.70;;
938;SDS011;456;53.584;9.968;2023-09-19T15:41:34;3.63;;;2.80;;
938;SDS011;456;53.584;9.968;2023-09-19T15:44:02;4.27;;;2.63;;
938;SDS011;456;53.584;9.968;2023-09-19T15:46:29;5.53;;;2.60;;
938;SDS011;456;53.584;9.968;2023-09-19T15:48:56;3.90;;;2.60;;
938;SDS011;456;53.584;9.968;2023-09-19T15:51:22;4.13;;;2.50;;
938;SDS011;456;53.584;9.968;2023-09-19T15:53:52;2.53;;;2.10;;
938;SDS011;456;53.584;9.968;2023-09-19T15:56:19;2.90;;;2.07;;
938;SDS011;456;53.584;9.968;2023-09-19T15:58:46;4.00;;;2.60;;
938;SDS011;456;53.584;9.968;2023-09-19T16:01:13;3.00;;;2.60;;
938;SDS011;456;53.584;9.968;2023-09-19T16:03:42;3.83;;;2.87;;
938;SDS011;456;53.584;9.968;2023-09-19T16:06:09;3.13;;;2.80;;
938;SDS011;456;53.584;9.968;2023-09-19T16:08:40;3.00;;;2.40;;
938;SDS011;456;53.584;9.968;2023-09-19T16:11:10;3.00;;;2.33;;
938;SDS011;456;53.584;9.968;2023-09-19T16:13:39;2.60;;;2.40;;
938;SDS011;456;53.584;9.968;2023-09-19T16:16:11;5.37;;;3.40;;
938;SDS011;456;53.584;9.968;2023-09-19T16:18:47;4.93;;;2.70;;
938;SDS011;456;53.584;9.968;2023-09-19T16:21:30;3.77;;;2.80;;
938;SDS011;456;53.584;9.968;2023-09-19T16:23:58;4.80;;;3.17;;
938;SDS011;456;53.584;9.968;2023-09-19T16:26:25;5.10;;;3.30;;
938;SDS011;456;53.584;9.968;2023-09-19T16:28:52;5.10;;;2.97;;
938;SDS011;456;53.584;9.968;2023-09-19T16:31:21;6.53;;;2.90;;
938;SDS011;456;53.584;9.968;2023-09-19T16:33:47;2.30;;;2.10;;
938;SDS011;456;53.584;9.968;2023-09-19T16:36:14;5.63;;;3.33;;
938;SDS011;456;53.584;9.968;2023-09-19T16:38:45;4.87;;;3.60;;
938;SDS011;456;53.584;9.968;2023-09-19T16:41:12;3.70;;;3.00;;
938;SDS011;456;53.584;9.968;2023-09-19T16:43:38;3.37;;;2.70;;
938;SDS011;456;53.584;9.968;2023-09-19T16:46:05;5.13;;;3.13;;
938;SDS011;456;53.584;9.968;2023-09-19T16:48:36;4.60;;;3.30;;
938;SDS011;456;53.584;9.968;2023-09-19T16:51:02;4.47;;;2.90;;
938;SDS011;456;53.584;9.968;2023-09-19T16:53:30;3.90;;;2.93;;
938;SDS011;456;53.584;9.968;2023-09-19T16:56:03;3.50;;;2.83;;